createdAt,value
2022-08-12T04:02:55.537Z,100637.72
2022-08-12T04:05:57.996Z,100637.72
2022-08-12T04:09:00.167Z,100646.78
2022-08-12T04:12:23.044Z,100640.66
2022-08-12T04:15:31.493Z,100645.28
2022-08-12T04:18:34.100Z,100646.19
2022-08-12T04:21:37.975Z,100648.91
2022-08-12T04:25:01.582Z,100651.19
2022-08-12T04:28:13.211Z,100648.69
2022-08-12T04:31:16.146Z,100655.03
2022-08-12T04:34:18.941Z,100648.91
2022-08-12T04:37:21.490Z,100660.59
2022-08-12T04:40:28.763Z,100664.59
2022-08-12T04:43:59.944Z,100669.94
2022-08-12T04:46:54.486Z,100670.69
2022-08-12T04:49:56.827Z,100671.94
2022-08-12T04:53:00.665Z,100673.19
2022-08-12T04:56:04.589Z,100678.72
2022-08-12T04:59:07.615Z,100682.47
2022-08-12T05:02:10.078Z,100683.25
2022-08-12T05:05:22.788Z,100681.19
2022-08-12T05:08:26.461Z,100683.72
2022-08-12T05:11:28.781Z,100689.62
2022-08-12T05:14:37.034Z,100690.00
2022-08-12T05:17:41.109Z,100689.97
2022-08-12T05:20:44.629Z,100692.81
2022-08-12T05:23:46.802Z,100686.66
2022-08-12T05:26:49.226Z,100688.13
2022-08-12T05:30:07.086Z,100688.47
2022-08-12T05:33:15.697Z,100678.44
2022-08-12T05:36:19.901Z,100687.94
2022-08-12T05:39:22.252Z,100689.75
2022-08-12T05:42:32.556Z,100690.12
2022-08-12T05:45:41.541Z,100695.59
2022-08-12T05:48:47.219Z,100683.19
2022-08-12T05:51:49.610Z,100690.34
2022-08-12T05:54:57.593Z,100683.25
2022-08-12T05:58:02.883Z,100684.66
2022-08-12T06:02:11.378Z,100682.81
2022-08-12T06:04:27.439Z,100679.09
2022-08-12T06:07:42.800Z,100691.53
2022-08-12T06:10:52.085Z,100683.06
2022-08-12T06:13:55.606Z,100679.34
2022-08-12T06:16:59.901Z,100679.78
2022-08-12T06:20:26.237Z,100680.75
2022-08-12T06:23:28.582Z,100685.16
2022-08-12T06:26:30.728Z,100680.81
2022-08-12T06:30:09.134Z,100689.47
2022-08-12T06:33:11.266Z,100686.66
2022-08-12T06:36:21.194Z,100680.25
2022-08-12T06:39:24.444Z,100682.28
2022-08-12T06:42:52.725Z,100677.91
2022-08-12T06:45:58.050Z,100675.59
2022-08-12T06:49:00.549Z,100679.06
2022-08-12T06:52:11.807Z,100681.69
2022-08-12T06:55:20.902Z,100679.41
2022-08-12T06:58:25.082Z,100685.03
2022-08-12T07:01:27.557Z,100687.50
2022-08-12T07:04:38.410Z,100684.81
2022-08-12T07:07:41.765Z,100687.63
2022-08-12T07:10:58.935Z,100685.63
2022-08-12T07:14:12.325Z,100684.13
2022-08-12T07:17:15.449Z,100687.19
2022-08-12T07:20:42.638Z,100678.25
2022-08-12T07:23:41.742Z,100687.97
2022-08-12T07:26:44.650Z,100688.47
2022-08-12T07:29:58.219Z,100696.88
2022-08-12T07:33:08.914Z,100692.19
2022-08-12T07:36:13.978Z,100696.19
2022-08-12T07:39:17.005Z,100691.34
2022-08-12T07:42:19.135Z,100688.66
2022-08-12T07:45:22.025Z,100693.47
2022-08-12T07:48:24.615Z,100693.28
2022-08-12T07:51:28.345Z,100685.53
2022-08-12T07:54:30.415Z,100686.66
2022-08-12T07:57:33.217Z,100679.88
2022-08-12T08:00:37.529Z,100689.31
2022-08-12T08:04:01.393Z,100684.81
2022-08-12T08:07:03.649Z,100682.31
2022-08-12T08:10:10.943Z,100681.59
2022-08-12T08:13:13.628Z,100684.84
2022-08-12T08:16:16.069Z,100679.84
2022-08-12T08:19:23.829Z,100670.50
2022-08-12T08:22:41.849Z,100677.47
2022-08-12T08:25:45.430Z,100682.00
2022-08-12T08:28:48.178Z,100678.59
2022-08-12T08:31:54.340Z,100675.75
2022-08-12T08:34:56.666Z,100667.94
2022-08-12T08:38:28.715Z,100672.84
2022-08-12T08:42:17.088Z,100661.50
2022-08-12T08:45:16.290Z,100663.41
2022-08-12T08:48:18.735Z,100667.25
2022-08-12T08:51:24.163Z,100661.47
2022-08-12T08:54:26.504Z,100661.06
2022-08-12T08:57:43.810Z,100663.91
2022-08-12T09:00:50.922Z,100661.16
2022-08-12T09:05:07.832Z,100659.72
2022-08-12T09:07:51.708Z,100656.72
2022-08-12T09:10:45.364Z,100643.81
2022-08-12T09:14:12.509Z,100648.28
2022-08-12T09:20:39.518Z,100636.91
2022-08-12T09:24:00.418Z,100649.53
2022-08-12T09:27:06.385Z,100642.44
2022-08-12T09:30:16.141Z,100633.06
2022-08-12T09:34:25.677Z,100637.75
2022-08-12T09:36:57.969Z,100624.97
2022-08-12T09:40:57.418Z,100623.06
2022-08-12T09:43:53.595Z,100626.19
2022-08-12T09:47:03.301Z,100611.03
2022-08-12T09:50:20.535Z,100611.94
2022-08-12T09:53:36.556Z,100607.97
2022-08-12T09:57:02.653Z,100607.25
2022-08-12T10:00:13.407Z,100598.53
2022-08-12T10:03:32.512Z,100599.06
2022-08-12T10:06:36.051Z,100599.41
2022-08-12T10:09:57.514Z,100602.16
2022-08-12T10:13:34.832Z,100593.53
2022-08-12T10:16:45.731Z,100592.81
2022-08-12T10:19:52.041Z,100590.44
2022-08-12T10:22:59.122Z,100589.69
2022-08-12T10:26:37.858Z,100585.81
2022-08-12T10:30:38.908Z,100589.78
2022-08-12T10:33:18.476Z,100585.97
2022-08-12T10:36:40.619Z,100580.59
2022-08-12T10:40:01.575Z,100579.87
2022-08-12T10:43:26.634Z,100573.97
2022-08-12T10:46:30.576Z,100560.25
2022-08-12T10:50:03.422Z,100571.66
2022-08-12T10:52:56.850Z,100565.00
2022-08-12T10:56:00.374Z,100560.22
2022-08-12T10:59:11.061Z,100561.78
2022-08-12T11:04:20.197Z,100567.69
2022-08-12T11:07:06.816Z,100570.47
2022-08-12T11:09:00.393Z,100566.97
2022-08-12T11:12:35.506Z,100568.16
2022-08-12T11:16:03.023Z,100576.03
2022-08-12T11:18:55.596Z,100569.37
2022-08-12T11:22:01.235Z,100572.13
2022-08-12T11:25:10.433Z,100563.50
2022-08-12T11:28:15.884Z,100557.97
2022-08-12T11:31:18.207Z,100561.94
2022-08-12T11:34:53.757Z,100550.59
2022-08-12T11:37:59.088Z,100566.69
2022-08-12T11:41:05.040Z,100553.38
2022-08-12T11:44:43.001Z,100561.28
2022-08-12T11:47:29.462Z,100558.53
2022-08-12T11:50:32.919Z,100558.53
2022-08-12T11:53:59.019Z,100549.09
2022-08-12T11:57:02.980Z,100553.03
2022-08-12T12:03:48.232Z,100549.84
2022-08-12T12:06:52.952Z,100542.37
2022-08-12T12:09:55.822Z,100538.87
2022-08-12T12:12:57.959Z,100547.53
2022-08-12T12:16:00.312Z,100540.47
2022-08-12T12:19:02.478Z,100533.78
2022-08-12T12:22:04.831Z,100538.09
2022-08-12T12:25:13.376Z,100531.00
2022-08-12T12:28:36.597Z,100528.63
2022-08-12T12:32:10.876Z,100519.19
2022-08-12T12:35:13.466Z,100513.62
2022-08-12T12:38:25.188Z,100513.69
2022-08-12T12:42:42.551Z,100513.31
2022-08-12T12:44:53.754Z,100497.22
2022-08-12T12:47:58.745Z,100488.16
2022-08-12T12:51:48.550Z,100498.41
2022-08-12T12:54:52.302Z,100486.59
2022-08-12T12:58:00.527Z,100485.81
2022-08-12T13:01:04.783Z,100488.94
2022-08-12T13:04:27.041Z,100483.84
2022-08-12T13:07:54.437Z,100470.47
2022-08-12T13:10:53.063Z,100466.53
2022-08-12T13:14:09.984Z,100480.31
2022-08-12T13:17:17.465Z,100464.97
2022-08-12T13:20:37.751Z,100461.44
2022-08-12T13:23:42.042Z,100463.78
2022-08-12T13:26:47.197Z,100461.41
2022-08-12T13:29:50.018Z,100455.91
2022-08-12T13:32:58.501Z,100451.97
2022-08-12T13:36:06.295Z,100457.50
2022-08-12T13:39:12.590Z,100454.75
2022-08-12T13:42:22.852Z,100459.47
2022-08-12T13:45:26.597Z,100453.94
2022-08-12T13:48:31.081Z,100457.87
2022-08-12T13:51:41.023Z,100453.53
2022-08-12T13:54:43.562Z,100451.22
2022-08-12T13:57:59.854Z,100446.87
2022-08-12T14:01:05.508Z,100430.72
2022-08-12T14:04:12.327Z,100435.06
2022-08-12T14:07:14.693Z,100431.88
2022-08-12T14:10:36.287Z,100424.41
2022-08-12T14:14:05.570Z,100424.41
2022-08-12T14:17:05.658Z,100425.16
2022-08-12T14:20:14.544Z,100432.69
2022-08-12T14:24:01.411Z,100429.56
2022-08-12T14:26:46.955Z,100423.63
2022-08-12T14:30:03.947Z,100425.59
2022-08-12T14:33:09.149Z,100411.44
2022-08-12T14:36:21.953Z,100410.66
2022-08-12T14:39:25.094Z,100403.16
2022-08-12T14:42:28.789Z,100407.88
